sensor_id;sensor_type;location;lat;lon;timestamp;pressure;altitude;pressure_sealevel;temperature;humidity
7614;BME280;3848;42.016;23.098;2023-02-19T00:00:11;97597.16;;;4.95;100.00
7614;BME280;3848;42.016;23.098;2023-02-19T00:02:40;97584.41;;;4.87;100.00
7614;BME280;3848;42.016;23.098;2023-02-19T00:05:07;97585.25;;;4.88;100.00
7614;BME280;3848;42.016;23.098;2023-02-19T00:07:34;97529.28;;;4.59;100.00
7614;BME280;3848;42.016;23.098;2023-02-19T00:10:01;97581.22;;;4.96;100.00
7614;BME280;3848;42.016;23.098;2023-02-19T00:12:28;97577.69;;;4.88;100.00
7614;BME280;3848;42.016;23.098;2023-02-19T00:14:54;97584.44;;;4.89;100.00
7614;BME280;3848;42.016;23.098;2023-02-19T00:17:24;97582.69;;;4.85;100.00
7614;BME280;3848;42.016;23.098;2023-02-19T00:19:51;97573.28;;;4.78;100.00
7614;BME280;3848;42.016;23.098;2023-02-19T00:22:17;97584.97;;;4.76;100.00
7614;BME280;3848;42.016;23.098;2023-02-19T00:24:44;97569.84;;;4.74;100.00
7614;BME280;3848;42.016;23.098;2023-02-19T00:27:11;97574.09;;;4.77;100.00
7614;BME280;3848;42.016;23.098;2023-02-19T00:29:38;97571.47;;;4.72;100.00
7614;BME280;3848;42.016;23.098;2023-02-19T00:32:04;97573.97;;;4.71;100.00
7614;BME280;3848;42.016;23.098;2023-02-19T00:34:33;97565.50;;;4.67;100.00
7614;BME280;3848;42.016;23.098;2023-02-19T00:37:00;97566.44;;;4.72;100.00
7614;BME280;3848;42.016;23.098;2023-02-19T00:39:26;97554.50;;;4.62;100.00
7614;BME280;3848;42.016;23.098;2023-02-19T00:41:53;97570.63;;;4.72;100.00
7614;BME280;3848;42.016;23.098;2023-02-19T00:44:20;97560.47;;;4.67;100.00
7614;BME280;3848;42.016;23.098;2023-02-19T00:46:47;97569.78;;;4.71;100.00
7614;BME280;3848;42.016;23.098;2023-02-19T00:49:16;97571.41;;;4.69;100.00
7614;BME280;3848;42.016;23.098;2023-02-19T00:51:45;97569.78;;;4.71;100.00
7614;BME280;3848;42.016;23.098;2023-02-19T00:54:12;97572.28;;;4.71;100.00
7614;BME280;3848;42.016;23.098;2023-02-19T00:56:40;97571.25;;;4.62;100.00
7614;BME280;3848;42.016;23.098;2023-02-19T00:59:06;97566.84;;;4.53;100.00
7614;BME280;3848;42.016;23.098;2023-02-19T01:01:33;97566.91;;;4.56;100.00
7614;BME280;3848;42.016;23.098;2023-02-19T01:04:00;97560.97;;;4.52;100.00
7614;BME280;3848;42.016;23.098;2023-02-19T01:06:27;97562.56;;;4.49;100.00
7614;BME280;3848;42.016;23.098;2023-02-19T01:08:58;97554.84;;;4.40;100.00
7614;BME280;3848;42.016;23.098;2023-02-19T01:11:25;97562.44;;;4.43;100.00
7614;BME280;3848;42.016;23.098;2023-02-19T01:13:56;97556.66;;;4.47;100.00
7614;BME280;3848;42.016;23.098;2023-02-19T01:16:23;97561.72;;;4.48;100.00
7614;BME280;3848;42.016;23.098;2023-02-19T01:18:50;97554.97;;;4.46;100.00
7614;BME280;3848;42.016;23.098;2023-02-19T01:21:18;97554.97;;;4.46;100.00
7614;BME280;3848;42.016;23.098;2023-02-19T01:23:46;97554.91;;;4.43;100.00
7614;BME280;3848;42.016;23.098;2023-02-19T01:26:16;97545.66;;;4.42;100.00
7614;BME280;3848;42.016;23.098;2023-02-19T01:28:44;97471.59;;;3.93;100.00
7614;BME280;3848;42.016;23.098;2023-02-19T01:31:12;97537.94;;;4.36;100.00
7614;BME280;3848;42.016;23.098;2023-02-19T01:33:39;97547.03;;;4.29;100.00
7614;BME280;3848;42.016;23.098;2023-02-19T01:36:09;97551.13;;;4.25;100.00
7614;BME280;3848;42.016;23.098;2023-02-19T01:38:36;97541.94;;;4.26;100.00
7614;BME280;3848;42.016;23.098;2023-02-19T01:41:05;97547.81;;;4.26;100.00
7614;BME280;3848;42.016;23.098;2023-02-19T01:43:54;97541.00;;;4.22;100.00
7614;BME280;3848;42.016;23.098;2023-02-19T01:46:24;97548.28;;;4.12;100.00
7614;BME280;3848;42.016;23.098;2023-02-19T01:48:51;97538.19;;;4.10;100.00
7614;BME280;3848;42.016;23.098;2023-02-19T01:51:20;97541.56;;;4.11;100.00
7614;BME280;3848;42.016;23.098;2023-02-19T01:53:50;97535.47;;;4.01;100.00
7614;BME280;3848;42.016;23.098;2023-02-19T01:56:20;97549.75;;;4.02;100.00
7614;BME280;3848;42.016;23.098;2023-02-19T01:58:48;97543.06;;;4.03;100.00
7614;BME280;3848;42.016;23.098;2023-02-19T02:01:15;97554.81;;;4.04;100.00
7614;BME280;3848;42.016;23.098;2023-02-19T02:03:44;97537.22;;;4.04;100.00
7614;BME280;3848;42.016;23.098;2023-02-19T02:06:16;97537.25;;;4.05;100.00
7614;BME280;3848;42.016;23.098;2023-02-19T02:08:45;97537.44;;;4.14;100.00
7614;BME280;3848;42.016;23.098;2023-02-19T02:11:30;97525.56;;;4.07;100.00
7614;BME280;3848;42.016;23.098;2023-02-19T02:13:58;97545.69;;;4.07;100.00
7614;BME280;3848;42.016;23.098;2023-02-19T02:16:31;97543.84;;;4.00;100.00
7614;BME280;3848;42.016;23.098;2023-02-19T02:19:06;97548.91;;;4.02;100.00
7614;BME280;3848;42.016;23.098;2023-02-19T02:21:54;97538.03;;;4.03;100.00
7614;BME280;3848;42.016;23.098;2023-02-19T02:27:48;97568.19;;;4.03;100.00
7614;BME280;3848;42.016;23.098;2023-02-19T02:30:40;97567.81;;;3.87;100.00
7614;BME280;3848;42.016;23.098;2023-02-19T02:33:16;97569.31;;;3.81;100.00
7614;BME280;3848;42.016;23.098;2023-02-19T02:35:49;97565.88;;;3.77;100.00
7614;BME280;3848;42.016;23.098;2023-02-19T02:38:19;97565.69;;;3.70;100.00
7614;BME280;3848;42.016;23.098;2023-02-19T02:40:47;97571.25;;;3.58;100.00
7614;BME280;3848;42.016;23.098;2023-02-19T02:43:13;97584.34;;;3.48;100.00
7614;BME280;3848;42.016;23.098;2023-02-19T02:45:42;97586.78;;;3.45;100.00
7614;BME280;3848;42.016;23.098;2023-02-19T02:48:17;97591.81;;;3.45;100.00
7614;BME280;3848;42.016;23.098;2023-02-19T02:50:49;97591.97;;;3.51;100.00
7614;BME280;3848;42.016;23.098;2023-02-19T02:53:20;97584.47;;;3.52;100.00
7614;BME280;3848;42.016;23.098;2023-02-19T02:56:06;97583.03;;;3.60;100.00
7614;BME280;3848;42.016;23.098;2023-02-19T02:58:36;97555.81;;;3.44;100.00
7614;BME280;3848;42.016;23.098;2023-02-19T03:01:08;97589.22;;;3.42;100.00
7614;BME280;3848;42.016;23.098;2023-02-19T03:03:57;97593.75;;;3.23;100.00
7614;BME280;3848;42.016;23.098;2023-02-19T03:06:29;97596.00;;;3.14;100.00
7614;BME280;3848;42.016;23.098;2023-02-19T03:09:00;97597.44;;;3.06;100.00
7614;BME280;3848;42.016;23.098;2023-02-19T03:11:29;97582.88;;;2.94;100.00
7614;BME280;3848;42.016;23.098;2023-02-19T03:14:18;97596.44;;;3.01;100.00
7614;BME280;3848;42.016;23.098;2023-02-19T03:17:09;97577.63;;;2.87;100.00
7614;BME280;3848;42.016;23.098;2023-02-19T03:19:56;97594.63;;;2.95;100.00
7614;BME280;3848;42.016;23.098;2023-02-19T03:22:26;97613.09;;;2.97;100.00
7614;BME280;3848;42.016;23.098;2023-02-19T03:24:58;97610.25;;;2.87;100.00
7614;BME280;3848;42.016;23.098;2023-02-19T03:27:44;97611.94;;;2.88;100.00
7614;BME280;3848;42.016;23.098;2023-02-19T03:30:15;97623.00;;;2.93;100.00
7614;BME280;3848;42.016;23.098;2023-02-19T03:32:47;97628.72;;;2.89;100.00
7614;BME280;3848;42.016;23.098;2023-02-19T03:35:18;97617.97;;;2.93;100.00
7614;BME280;3848;42.016;23.098;2023-02-19T03:37:51;97623.81;;;2.92;100.00
7614;BME280;3848;42.016;23.098;2023-02-19T03:40:20;97610.06;;;2.81;100.00
7614;BME280;3848;42.016;23.098;2023-02-19T03:42:57;97641.28;;;2.90;100.00
7614;BME280;3848;42.016;23.098;2023-02-19T03:45:43;97620.97;;;2.81;100.00
7614;BME280;3848;42.016;23.098;2023-02-19T03:48:24;97635.56;;;2.93;100.00
7614;BME280;3848;42.016;23.098;2023-02-19T03:51:04;97638.75;;;2.89;100.00
7614;BME280;3848;42.016;23.098;2023-02-19T03:53:38;97655.50;;;2.90;100.00
7614;BME280;3848;42.016;23.098;2023-02-19T03:56:13;97646.44;;;2.93;100.00
7614;BME280;3848;42.016;23.098;2023-02-19T03:58:48;97647.16;;;2.91;100.00
7614;BME280;3848;42.016;23.098;2023-02-19T04:01:20;97646.44;;;2.93;100.00
7614;BME280;3848;42.016;23.098;2023-02-19T04:03:56;97643.72;;;2.87;100.00
7614;BME280;3848;42.016;23.098;2023-02-19T04:06:26;97655.38;;;2.85;100.00
7614;BME280;3848;42.016;23.098;2023-02-19T04:08:55;97646.09;;;2.83;100.00
7614;BME280;3848;42.016;23.098;2023-02-19T04:11:25;97650.59;;;2.93;100.00
7614;BME280;3848;42.016;23.098;2023-02-19T04:13:55;97651.34;;;2.90;100.00
7614;BME280;3848;42.016;23.098;2023-02-19T04:16:27;97654.00;;;2.95;100.00
7614;BME280;3848;42.016;23.098;2023-02-19T04:18:58;97641.41;;;2.93;100.00
7614;BME280;3848;42.016;23.098;2023-02-19T04:21:29;97651.59;;;2.98;100.00
7614;BME280;3848;42.016;23.098;2023-02-19T04:24:00;97643.69;;;2.86;100.00
7614;BME280;3848;42.016;23.098;2023-02-19T04:26:30;97659.06;;;2.96;100.00
7614;BME280;3848;42.016;23.098;2023-02-19T04:28:58;97658.19;;;2.94;100.00
7614;BME280;3848;42.016;23.098;2023-02-19T04:31:25;97649.63;;;2.89;100.00
7614;BME280;3848;42.016;23.098;2023-02-19T04:33:54;97655.66;;;2.94;100.00
7614;BME280;3848;42.016;23.098;2023-02-19T04:36:21;97639.56;;;2.88;100.00
7614;BME280;3848;42.016;23.098;2023-02-19T04:38:48;97649.63;;;2.89;100.00
7614;BME280;3848;42.016;23.098;2023-02-19T04:41:15;97652.94;;;2.88;100.00
7614;BME280;3848;42.016;23.098;2023-02-19T04:43:41;97654.56;;;2.86;100.00
7614;BME280;3848;42.016;23.098;2023-02-19T04:46:08;97654.66;;;2.89;100.00
7614;BME280;3848;42.016;23.098;2023-02-19T04:48:35;97656.19;;;2.84;100.00
7614;BME280;3848;42.016;23.098;2023-02-19T04:51:06;97662.81;;;2.82;100.00
7614;BME280;3848;42.016;23.098;2023-02-19T04:53:33;97655.25;;;2.81;100.00
7614;BME280;3848;42.016;23.098;2023-02-19T04:56:04;97651.78;;;2.77;100.00
7614;BME280;3848;42.016;23.098;2023-02-19T04:58:31;97650.13;;;2.78;100.00
7614;BME280;3848;42.016;23.098;2023-02-19T05:00:58;97638.94;;;2.68;100.00
7614;BME280;3848;42.016;23.098;2023-02-19T05:03:25;97660.16;;;2.78;100.00
7614;BME280;3848;42.016;23.098;2023-02-19T05:05:52;97662.72;;;2.79;100.00
7614;BME280;3848;42.016;23.098;2023-02-19T05:08:20;97665.13;;;2.76;100.00
7614;BME280;3848;42.016;23.098;2023-02-19T05:10:47;97645.78;;;2.72;100.00
7614;BME280;3848;42.016;23.098;2023-02-19T05:13:13;97663.63;;;2.81;100.00
7614;BME280;3848;42.016;23.098;2023-02-19T05:15:40;97659.44;;;2.82;100.00
7614;BME280;3848;42.016;23.098;2023-02-19T05:18:07;97672.84;;;2.82;100.00
7614;BME280;3848;42.016;23.098;2023-02-19T05:20:34;97674.38;;;2.77;100.00
7614;BME280;3848;42.016;23.098;2023-02-19T05:23:01;97670.13;;;2.74;100.00
7614;BME280;3848;42.016;23.098;2023-02-19T05:25:29;97672.66;;;2.76;100.00
7614;BME280;3848;42.016;23.098;2023-02-19T05:27:56;97675.13;;;2.74;100.00
7614;BME280;3848;42.016;23.098;2023-02-19T05:30:41;97670.88;;;2.72;100.00
7614;BME280;3848;42.016;23.098;2023-02-19T05:33:08;97680.19;;;2.76;100.00
7614;BME280;3848;42.016;23.098;2023-02-19T05:35:39;97686.97;;;2.79;100.00
7614;BME280;3848;42.016;23.098;2023-02-19T05:38:07;97689.44;;;2.77;100.00
7614;BME280;3848;42.016;23.098;2023-02-19T05:40:35;97688.72;;;2.81;100.00
7614;BME280;3848;42.016;23.098;2023-02-19T05:43:02;97698.66;;;2.78;100.00
7614;BME280;3848;42.016;23.098;2023-02-19T05:45:29;97701.84;;;2.72;100.00
7614;BME280;3848;42.016;23.098;2023-02-19T05:47:56;97709.41;;;2.74;100.00
7614;BME280;3848;42.016;23.098;2023-02-19T05:50:23;97708.38;;;2.69;100.00
7614;BME280;3848;42.016;23.098;2023-02-19T05:52:50;97713.16;;;2.61;100.00
7614;BME280;3848;42.016;23.098;2023-02-19T05:55:17;97717.25;;;2.58;100.00
7614;BME280;3848;42.016;23.098;2023-02-19T05:57:47;97717.03;;;2.52;100.00
7614;BME280;3848;42.016;23.098;2023-02-19T06:00:16;97728.84;;;2.54;100.00
7614;BME280;3848;42.016;23.098;2023-02-19T06:02:44;97733.91;;;2.56;100.00
7614;BME280;3848;42.016;23.098;2023-02-19T06:05:11;97735.66;;;2.58;100.00
7614;BME280;3848;42.016;23.098;2023-02-19T06:07:38;97730.53;;;2.55;100.00
7614;BME280;3848;42.016;23.098;2023-02-19T06:10:06;97736.41;;;2.56;100.00
7614;BME280;3848;42.016;23.098;2023-02-19T06:12:33;97741.38;;;2.54;100.00
7614;BME280;3848;42.016;23.098;2023-02-19T06:15:02;97744.78;;;2.56;100.00
7614;BME280;3848;42.016;23.098;2023-02-19T06:17:30;97751.75;;;2.65;100.00
7614;BME280;3848;42.016;23.098;2023-02-19T06:19:57;97750.75;;;2.60;100.00
7614;BME280;3848;42.016;23.098;2023-02-19T06:22:24;97765.28;;;2.70;100.00
7614;BME280;3848;42.016;23.098;2023-02-19T06:24:50;97759.38;;;2.68;100.00
7614;BME280;3848;42.016;23.098;2023-02-19T06:27:17;97767.88;;;2.71;100.00
7614;BME280;3848;42.016;23.098;2023-02-19T06:29:44;97764.69;;;2.77;100.00
7614;BME280;3848;42.016;23.098;2023-02-19T06:32:12;97773.63;;;2.69;100.00
7614;BME280;3848;42.016;23.098;2023-02-19T06:34:39;97764.69;;;2.52;100.00
7614;BME280;3848;42.016;23.098;2023-02-19T06:37:06;97757.75;;;2.44;100.00
7614;BME280;3848;42.016;23.098;2023-02-19T06:39:32;97718.78;;;2.05;100.00
7614;BME280;3848;42.016;23.098;2023-02-19T06:41:59;97780.81;;;2.34;100.00
7614;BME280;3848;42.016;23.098;2023-02-19T06:44:26;97769.13;;;2.35;100.00
7614;BME280;3848;42.016;23.098;2023-02-19T06:46:53;97779.97;;;2.34;100.00
7614;BME280;3848;42.016;23.098;2023-02-19T06:49:22;97777.50;;;2.35;100.00
7614;BME280;3848;42.016;23.098;2023-02-19T06:51:48;97775.91;;;2.37;100.00
7614;BME280;3848;42.016;23.098;2023-02-19T06:54:15;97766.69;;;2.36;100.00
7614;BME280;3848;42.016;23.098;2023-02-19T06:56:42;97780.56;;;2.51;100.00
7614;BME280;3848;42.016;23.098;2023-02-19T06:59:11;97769.16;;;2.60;100.00
7614;BME280;3848;42.016;23.098;2023-02-19T07:01:38;97777.91;;;2.71;100.00
7614;BME280;3848;42.016;23.098;2023-02-19T07:04:06;97783.16;;;2.79;100.00
7614;BME280;3848;42.016;23.098;2023-02-19T07:06:34;97773.31;;;2.85;100.00
7614;BME280;3848;42.016;23.098;2023-02-19T07:09:03;97772.09;;;2.99;100.00
7614;BME280;3848;42.016;23.098;2023-02-19T07:11:32;97767.38;;;3.09;100.00
7614;BME280;3848;42.016;23.098;2023-02-19T07:14:01;97763.59;;;3.21;100.00
7614;BME280;3848;42.016;23.098;2023-02-19T07:16:28;97765.78;;;3.38;100.00
7614;BME280;3848;42.016;23.098;2023-02-19T07:18:56;97760.28;;;3.51;100.00
7614;BME280;3848;42.016;23.098;2023-02-19T07:21:23;97764.78;;;3.61;100.00
7614;BME280;3848;42.016;23.098;2023-02-19T07:23:52;97764.19;;;3.70;100.00
7614;BME280;3848;42.016;23.098;2023-02-19T07:26:19;97746.59;;;3.70;100.00
7614;BME280;3848;42.016;23.098;2023-02-19T07:28:48;97759.00;;;3.93;100.00
7614;BME280;3848;42.016;23.098;2023-02-19T07:31:17;97759.31;;;4.04;100.00
7614;BME280;3848;42.016;23.098;2023-02-19T07:33:44;97755.53;;;4.18;100.00
7614;BME280;3848;42.016;23.098;2023-02-19T07:36:12;97745.69;;;4.27;100.00
7614;BME280;3848;42.016;23.098;2023-02-19T07:38:39;97746.88;;;4.40;100.00
7614;BME280;3848;42.016;23.098;2023-02-19T07:41:07;97744.69;;;4.54;100.00
7614;BME280;3848;42.016;23.098;2023-02-19T07:43:36;97749.28;;;4.69;100.00
7614;BME280;3848;42.016;23.098;2023-02-19T07:46:03;97745.41;;;4.81;100.00
7614;BME280;3848;42.016;23.098;2023-02-19T07:48:31;97748.19;;;4.94;100.00
7614;BME280;3848;42.016;23.098;2023-02-19T07:50:59;97754.41;;;5.08;100.00
7614;BME280;3848;42.016;23.098;2023-02-19T07:53:27;97741.31;;;5.21;100.00
7614;BME280;3848;42.016;23.098;2023-02-19T07:55:58;97739.09;;;5.36;100.00
7614;BME280;3848;42.016;23.098;2023-02-19T07:58:26;97743.59;;;5.49;100.00
7614;BME280;3848;42.016;23.098;2023-02-19T08:00:53;97727.88;;;5.61;100.00
7614;BME280;3848;42.016;23.098;2023-02-19T08:03:20;97729.88;;;5.76;100.00
7614;BME280;3848;42.016;23.098;2023-02-19T08:05:46;97718.31;;;5.86;100.00
7614;BME280;3848;42.016;23.098;2023-02-19T08:08:14;97710.03;;;5.91;100.00
7614;BME280;3848;42.016;23.098;2023-02-19T08:10:41;97712.06;;;6.09;100.00
7614;BME280;3848;42.016;23.098;2023-02-19T08:13:28;97696.28;;;6.19;100.00
7614;BME280;3848;42.016;23.098;2023-02-19T08:16:07;97614.19;;;5.90;100.00
7614;BME280;3848;42.016;23.098;2023-02-19T08:18:35;97690.13;;;6.52;100.00
7614;BME280;3848;42.016;23.098;2023-02-19T08:21:02;97689.47;;;6.65;100.00
7614;BME280;3848;42.016;23.098;2023-02-19T08:23:28;97693.94;;;6.80;100.00
7614;BME280;3848;42.016;23.098;2023-02-19T08:25:56;97689.97;;;6.95;100.00
7614;BME280;3848;42.016;23.098;2023-02-19T08:28:23;97672.50;;;7.09;100.00
7614;BME280;3848;42.016;23.098;2023-02-19T08:30:52;97671.00;;;7.23;100.00
7614;BME280;3848;42.016;23.098;2023-02-19T08:33:20;97651.66;;;7.27;100.00
7614;BME280;3848;42.016;23.098;2023-02-19T08:35:47;97671.41;;;7.54;100.00
7614;BME280;3848;42.016;23.098;2023-02-19T08:38:14;97657.22;;;7.67;100.00
7614;BME280;3848;42.016;23.098;2023-02-19T08:40:41;97674.31;;;7.87;100.00
7614;BME280;3848;42.016;23.098;2023-02-19T08:43:11;97678.72;;;8.02;100.00
7614;BME280;3848;42.016;23.098;2023-02-19T08:45:39;97674.69;;;8.18;100.00
7614;BME280;3848;42.016;23.098;2023-02-19T08:48:09;97662.22;;;8.36;100.00
7614;BME280;3848;42.016;23.098;2023-02-19T08:50:37;97652.16;;;8.45;100.00
7614;BME280;3848;42.016;23.098;2023-02-19T08:53:05;97655.69;;;8.63;100.00
7614;BME280;3848;42.016;23.098;2023-02-19T08:55:32;97655.75;;;8.73;100.00
7614;BME280;3848;42.016;23.098;2023-02-19T08:57:58;97644.88;;;8.83;100.00
7614;BME280;3848;42.016;23.098;2023-02-19T09:00:25;97639.09;;;9.03;100.00
7614;BME280;3848;42.016;23.098;2023-02-19T09:02:52;97638.34;;;9.19;100.00
7614;BME280;3848;42.016;23.098;2023-02-19T09:05:21;97624.94;;;9.38;100.00
7614;BME280;3848;42.016;23.098;2023-02-19T09:07:47;97624.97;;;9.52;100.00
7614;BME280;3848;42.016;23.098;2023-02-19T09:10:14;97621.59;;;9.58;100.00
7614;BME280;3848;42.016;23.098;2023-02-19T09:12:41;97617.41;;;9.70;100.00
7614;BME280;3848;42.016;23.098;2023-02-19T09:15:08;97595.47;;;9.88;100.00
7614;BME280;3848;42.016;23.098;2023-02-19T09:17:35;97609.06;;;10.16;100.00
7614;BME280;3848;42.016;23.098;2023-02-19T09:20:02;97601.50;;;10.38;100.00
7614;BME280;3848;42.016;23.098;2023-02-19T09:22:30;97596.41;;;10.51;97.44
7614;BME280;3848;42.016;23.098;2023-02-19T09:24:57;97584.53;;;10.83;94.37
7614;BME280;3848;42.016;23.098;2023-02-19T09:27:24;97574.28;;;11.02;88.14
7614;BME280;3848;42.016;23.098;2023-02-19T09:29:51;97573.41;;;11.21;95.52
7614;BME280;3848;42.016;23.098;2023-02-19T09:32:19;97580.06;;;11.52;88.59
7614;BME280;3848;42.016;23.098;2023-02-19T09:34:46;97571.47;;;11.75;87.92
7614;BME280;3848;42.016;23.098;2023-02-19T09:37:12;97559.44;;;12.01;90.83
7614;BME280;3848;42.016;23.098;2023-02-19T09:39:41;97554.06;;;12.38;83.63
7614;BME280;3848;42.016;23.098;2023-02-19T09:42:12;97543.31;;;12.97;76.40
7614;BME280;3848;42.016;23.098;2023-02-19T09:44:42;97540.06;;;14.14;70.35
7614;BME280;3848;42.016;23.098;2023-02-19T09:47:15;97530.75;;;15.10;60.02
7614;BME280;3848;42.016;23.098;2023-02-19T09:49:44;97516.94;;;15.97;59.71
7614;BME280;3848;42.016;23.098;2023-02-19T09:52:22;97513.19;;;16.80;56.48
7614;BME280;3848;42.016;23.098;2023-02-19T09:54:51;97509.66;;;17.45;50.44
7614;BME280;3848;42.016;23.098;2023-02-19T09:57:23;97491.84;;;17.96;51.42
7614;BME280;3848;42.016;23.098;2023-02-19T09:59:52;97475.81;;;18.41;49.62
7614;BME280;3848;42.016;23.098;2023-02-19T10:02:25;97480.75;;;18.72;47.80
7614;BME280;3848;42.016;23.098;2023-02-19T10:04:52;97472.72;;;18.81;46.29
7614;BME280;3848;42.016;23.098;2023-02-19T10:07:22;97466.28;;;19.39;45.50
7614;BME280;3848;42.016;23.098;2023-02-19T10:09:53;97459.38;;;19.63;45.72
7614;BME280;3848;42.016;23.098;2023-02-19T10:12:24;97452.75;;;19.78;45.89
7614;BME280;3848;42.016;23.098;2023-02-19T10:14:54;97458.88;;;19.54;43.00
7614;BME280;3848;42.016;23.098;2023-02-19T10:17:24;97455.31;;;19.58;42.53
7614;BME280;3848;42.016;23.098;2023-02-19T10:19:52;97447.44;;;19.83;44.36
7614;BME280;3848;42.016;23.098;2023-02-19T10:22:19;97427.41;;;20.09;43.69
7614;BME280;3848;42.016;23.098;2023-02-19T10:24:48;97422.91;;;20.15;45.02
7614;BME280;3848;42.016;23.098;2023-02-19T10:27:17;97414.59;;;20.08;43.34
7614;BME280;3848;42.016;23.098;2023-02-19T10:29:47;97418.81;;;19.89;45.01
7614;BME280;3848;42.016;23.098;2023-02-19T10:32:16;97413.94;;;19.61;43.78
7614;BME280;3848;42.016;23.098;2023-02-19T10:35:06;97401.25;;;19.76;43.04
7614;BME280;3848;42.016;23.098;2023-02-19T10:37:33;97402.28;;;19.72;41.56
7614;BME280;3848;42.016;23.098;2023-02-19T10:40:01;97389.16;;;19.57;42.81
7614;BME280;3848;42.016;23.098;2023-02-19T10:42:30;97383.19;;;19.76;44.14
7614;BME280;3848;42.016;23.098;2023-02-19T10:44:59;97379.50;;;20.04;42.13
7614;BME280;3848;42.016;23.098;2023-02-19T10:47:29;97369.19;;;20.24;44.21
7614;BME280;3848;42.016;23.098;2023-02-19T10:49:58;97360.19;;;20.53;42.67
7614;BME280;3848;42.016;23.098;2023-02-19T10:52:27;97352.69;;;21.05;39.48
7614;BME280;3848;42.016;23.098;2023-02-19T10:55:13;97329.59;;;21.38;43.87
7614;BME280;3848;42.016;23.098;2023-02-19T10:57:42;97329.00;;;21.85;40.07
7614;BME280;3848;42.016;23.098;2023-02-19T11:00:20;97317.31;;;22.12;37.38
7614;BME280;3848;42.016;23.098;2023-02-19T11:02:48;97309.06;;;22.04;36.76
7614;BME280;3848;42.016;23.098;2023-02-19T11:05:17;97299.75;;;22.00;36.76
7614;BME280;3848;42.016;23.098;2023-02-19T11:07:47;97302.38;;;22.50;37.94
7614;BME280;3848;42.016;23.098;2023-02-19T11:10:24;97288.19;;;22.89;36.05
7614;BME280;3848;42.016;23.098;2023-02-19T11:12:55;97279.19;;;23.26;38.52
7614;BME280;3848;42.016;23.098;2023-02-19T11:15:24;97273.59;;;23.34;36.48
7614;BME280;3848;42.016;23.098;2023-02-19T11:17:54;97270.00;;;23.51;36.72
7614;BME280;3848;42.016;23.098;2023-02-19T11:20:22;97246.69;;;23.95;35.72
7614;BME280;3848;42.016;23.098;2023-02-19T11:22:50;97260.06;;;24.17;36.34
7614;BME280;3848;42.016;23.098;2023-02-19T11:25:19;97232.06;;;24.37;36.86
7614;BME280;3848;42.016;23.098;2023-02-19T11:27:55;97242.06;;;24.28;33.42
7614;BME280;3848;42.016;23.098;2023-02-19T11:30:37;97245.94;;;24.21;32.96
7614;BME280;3848;42.016;23.098;2023-02-19T11:33:21;97238.16;;;24.21;34.26
7614;BME280;3848;42.016;23.098;2023-02-19T11:35:50;97227.47;;;24.26;37.21
7614;BME280;3848;42.016;23.098;2023-02-19T11:38:18;97219.22;;;24.48;35.24
7614;BME280;3848;42.016;23.098;2023-02-19T11:40:51;97212.66;;;24.69;36.15
7614;BME280;3848;42.016;23.098;2023-02-19T11:43:35;97207.53;;;24.82;34.44
7614;BME280;3848;42.016;23.098;2023-02-19T11:46:10;97196.56;;;24.77;33.77
7614;BME280;3848;42.016;23.098;2023-02-19T11:48:50;97193.31;;;24.87;33.08
7614;BME280;3848;42.016;23.098;2023-02-19T11:51:46;97190.69;;;24.87;34.42
7614;BME280;3848;42.016;23.098;2023-02-19T11:54:24;97147.50;;;24.72;32.33
7614;BME280;3848;42.016;23.098;2023-02-19T11:57:03;97184.38;;;24.91;33.18
7614;BME280;3848;42.016;23.098;2023-02-19T11:59:41;97169.56;;;25.06;34.76
7614;BME280;3848;42.016;23.098;2023-02-19T12:02:25;97164.41;;;24.92;33.06
7614;BME280;3848;42.016;23.098;2023-02-19T12:05:24;97166.16;;;24.79;32.18
7614;BME280;3848;42.016;23.098;2023-02-19T12:08:19;97170.16;;;24.43;32.64
7614;BME280;3848;42.016;23.098;2023-02-19T12:14:16;97168.09;;;24.75;33.17
7614;BME280;3848;42.016;23.098;2023-02-19T12:16:55;97156.03;;;24.74;31.93
7614;BME280;3848;42.016;23.098;2023-02-19T12:19:43;97146.09;;;24.81;31.91
7614;BME280;3848;42.016;23.098;2023-02-19T12:22:28;97143.16;;;25.00;33.05
7614;BME280;3848;42.016;23.098;2023-02-19T12:25:17;97139.00;;;25.10;31.94
7614;BME280;3848;42.016;23.098;2023-02-19T12:31:18;97113.09;;;25.08;31.69
7614;BME280;3848;42.016;23.098;2023-02-19T12:34:14;97116.75;;;24.91;31.48
7614;BME280;3848;42.016;23.098;2023-02-19T12:36:52;97114.38;;;24.88;31.77
7614;BME280;3848;42.016;23.098;2023-02-19T12:39:29;97100.31;;;24.78;33.75
7614;BME280;3848;42.016;23.098;2023-02-19T12:42:09;97091.66;;;24.65;32.33
7614;BME280;3848;42.016;23.098;2023-02-19T12:44:40;97084.53;;;24.42;33.00
7614;BME280;3848;42.016;23.098;2023-02-19T12:47:15;97078.44;;;24.14;32.51
7614;BME280;3848;42.016;23.098;2023-02-19T12:49:47;97075.19;;;24.11;32.76
7614;BME280;3848;42.016;23.098;2023-02-19T12:52:19;97070.31;;;24.06;32.64
7614;BME280;3848;42.016;23.098;2023-02-19T12:54:50;97068.31;;;23.97;32.30
7614;BME280;3848;42.016;23.098;2023-02-19T12:57:21;97068.16;;;24.13;32.71
7614;BME280;3848;42.016;23.098;2023-02-19T12:59:53;97067.69;;;24.20;32.27
7614;BME280;3848;42.016;23.098;2023-02-19T13:02:26;97065.44;;;24.28;33.83
7614;BME280;3848;42.016;23.098;2023-02-19T13:05:01;97060.78;;;24.33;33.78
7614;BME280;3848;42.016;23.098;2023-02-19T13:07:36;97057.34;;;24.33;34.12
7614;BME280;3848;42.016;23.098;2023-02-19T13:10:17;97024.84;;;23.86;32.28
7614;BME280;3848;42.016;23.098;2023-02-19T13:12:48;97043.22;;;23.69;33.20
7614;BME280;3848;42.016;23.098;2023-02-19T13:15:30;97037.84;;;23.43;33.13
7614;BME280;3848;42.016;23.098;2023-02-19T13:17:59;97033.41;;;23.17;34.32
7614;BME280;3848;42.016;23.098;2023-02-19T13:20:31;97033.56;;;22.86;34.44
7614;BME280;3848;42.016;23.098;2023-02-19T13:23:05;97026.34;;;22.61;33.72
7614;BME280;3848;42.016;23.098;2023-02-19T13:26:13;97014.66;;;22.24;35.55
7614;BME280;3848;42.016;23.098;2023-02-19T13:28:58;97017.38;;;21.90;35.09
7614;BME280;3848;42.016;23.098;2023-02-19T13:31:58;97012.38;;;21.72;35.76
7614;BME280;3848;42.016;23.098;2023-02-19T13:34:44;97002.25;;;21.51;37.18
7614;BME280;3848;42.016;23.098;2023-02-19T13:37:15;97010.16;;;21.33;37.20
7614;BME280;3848;42.016;23.098;2023-02-19T13:39:47;97003.09;;;21.19;37.27